Time;durP1;ratioP1;P1;durP2;ratioP2;P2;SDS_P1;SDS_P2;PMS_P1;PMS_P2;Temp;Humidity;BMP_temperature;BMP_pressure;BME280_temperature;BME280_humidity;BME280_pressure;Samples;Min_cycle;Max_cycle;Signal;HPM_P1;HPM_P2
2021/01/17 00:00:28;;;;;;;16.52;12.35;;;-0.90;99.90;;;;;;4995935;28;20516;-78
2021/01/17 00:02:54;;;;;;;17.02;12.75;;;-0.90;99.90;;;;;;4989132;28;20033;-76
2021/01/17 00:05:24;;;;;;;17.35;13.00;;;-0.90;99.90;;;;;;4994282;28;20113;-76
2021/01/17 00:07:51;;;;;;;15.98;12.43;;;-0.90;99.90;;;;;;4990559;28;20037;-78
2021/01/17 00:10:20;;;;;;;17.38;11.18;;;-0.90;99.90;;;;;;4991854;28;20041;-76
2021/01/17 00:12:50;;;;;;;16.60;12.05;;;-0.90;99.90;;;;;;4990211;28;20054;-76
2021/01/17 00:15:16;;;;;;;16.65;12.50;;;-0.90;99.90;;;;;;5007947;28;20034;-78
2021/01/17 00:17:43;;;;;;;19.15;12.55;;;-0.90;99.90;;;;;;4988324;28;20077;-76
2021/01/17 00:20:11;;;;;;;16.17;11.20;;;-0.90;99.90;;;;;;5000971;28;20018;-76
2021/01/17 00:22:37;;;;;;;15.38;11.38;;;-0.90;99.90;;;;;;5000443;28;20057;-75
2021/01/17 00:25:08;;;;;;;15.90;11.70;;;-0.90;99.90;;;;;;5007054;28;20074;-75
2021/01/17 00:27:34;;;;;;;15.18;12.02;;;-0.90;99.90;;;;;;4995430;28;20457;-74
2021/01/17 00:30:01;;;;;;;17.15;12.50;;;-0.90;99.90;;;;;;5000621;28;20072;-77
2021/01/17 00:32:26;;;;;;;16.70;11.57;;;-0.90;99.90;;;;;;4987902;28;20313;-76
2021/01/17 00:34:54;;;;;;;16.35;11.27;;;-1.00;99.90;;;;;;4994976;28;20041;-77
2021/01/17 00:37:20;;;;;;;15.93;11.48;;;-0.90;99.90;;;;;;5020994;28;20393;-77
2021/01/17 00:39:46;;;;;;;18.60;12.80;;;-1.00;99.90;;;;;;5020924;28;20031;-77
2021/01/17 00:42:13;;;;;;;14.98;11.20;;;-1.10;99.90;;;;;;5003584;28;20042;-78
2021/01/17 00:44:39;;;;;;;19.50;13.35;;;-1.10;99.90;;;;;;4984107;28;20133;-74
2021/01/17 00:47:10;;;;;;;17.73;12.45;;;-1.10;99.90;;;;;;4992184;28;20030;-77
2021/01/17 00:49:36;;;;;;;17.25;13.20;;;-1.10;99.90;;;;;;4994939;28;20054;-73
2021/01/17 00:52:02;;;;;;;19.65;12.80;;;-1.00;99.90;;;;;;4990996;28;20077;-74
2021/01/17 00:54:27;;;;;;;19.83;13.77;;;-1.00;99.90;;;;;;4994115;28;20022;-76
2021/01/17 00:56:53;;;;;;;23.08;14.38;;;-1.00;99.90;;;;;;4992088;28;20034;-76
2021/01/17 00:59:18;;;;;;;23.63;15.15;;;-0.90;99.90;;;;;;4993294;28;20018;-73
2021/01/17 01:01:46;;;;;;;21.77;15.93;;;-1.00;99.90;;;;;;4986202;28;20039;-74
2021/01/17 01:04:15;;;;;;;20.15;14.45;;;-1.00;99.90;;;;;;4989196;28;20026;-73
2021/01/17 01:06:41;;;;;;;22.88;16.00;;;-1.10;99.90;;;;;;4990839;28;20030;-72
2021/01/17 01:09:09;;;;;;;27.80;15.90;;;-1.10;99.90;;;;;;4988658;28;20081;-73
2021/01/17 01:11:35;;;;;;;21.63;14.95;;;-1.10;99.90;;;;;;4992828;28;20556;-74
2021/01/17 01:14:01;;;;;;;21.65;15.38;;;-1.10;99.90;;;;;;4986567;28;20042;-74
2021/01/17 01:16:26;;;;;;;22.73;15.85;;;-1.20;99.90;;;;;;4993481;28;20034;-73
2021/01/17 01:18:52;;;;;;;25.00;17.85;;;-1.10;99.90;;;;;;4997324;28;20546;-73
2021/01/17 01:21:32;;;;;;;25.65;18.00;;;-1.20;99.90;;;;;;4998669;28;20061;-74
2021/01/17 01:23:58;;;;;;;25.60;17.27;;;-1.20;99.90;;;;;;5008282;28;20057;-74
2021/01/17 01:26:25;;;;;;;25.20;17.35;;;-1.30;99.90;;;;;;4997242;28;20104;-73
2021/01/17 01:28:54;;;;;;;26.83;18.23;;;-1.20;99.90;;;;;;4996258;28;20084;-72
2021/01/17 01:31:24;;;;;;;22.35;16.40;;;-1.20;99.90;;;;;;4988655;28;20490;-73
2021/01/17 01:33:59;;;;;;;26.10;18.05;;;-1.10;99.90;;;;;;5003114;28;20040;-73
2021/01/17 01:36:25;;;;;;;25.85;17.85;;;-1.10;99.90;;;;;;4991397;28;20061;-74
2021/01/17 01:38:52;;;;;;;25.38;16.77;;;-1.20;99.90;;;;;;4995710;28;20030;-73
2021/01/17 01:41:18;;;;;;;24.25;16.90;;;-1.10;99.90;;;;;;4984733;28;20378;-73
2021/01/17 01:43:46;;;;;;;24.27;16.92;;;-1.10;99.90;;;;;;4991110;28;20463;-73
2021/01/17 01:46:20;;;;;;;25.20;17.80;;;-1.10;99.90;;;;;;4996131;28;20022;-74
2021/01/17 01:48:46;;;;;;;24.52;16.90;;;-1.10;99.90;;;;;;4995898;28;20033;-73
2021/01/17 01:51:17;;;;;;;22.33;16.17;;;-1.10;99.90;;;;;;4995499;28;20031;-72
2021/01/17 01:53:43;;;;;;;24.70;17.48;;;-1.00;99.90;;;;;;4997636;28;20038;-72
2021/01/17 01:56:09;;;;;;;24.55;16.00;;;-0.90;99.90;;;;;;4992782;28;20034;-73
2021/01/17 01:58:37;;;;;;;23.40;16.23;;;-0.80;99.90;;;;;;4989148;28;20054;-72
2021/01/17 02:01:04;;;;;;;25.30;17.92;;;-0.80;99.90;;;;;;5003228;28;20486;-73
2021/01/17 02:03:30;;;;;;;23.42;17.17;;;-0.80;99.90;;;;;;4988688;28;20401;-72
2021/01/17 02:05:55;;;;;;;25.92;18.70;;;-0.70;99.90;;;;;;4999798;28;20030;-74
2021/01/17 02:08:33;;;;;;;26.77;18.23;;;-0.60;99.90;;;;;;5007485;28;20040;-72
2021/01/17 02:11:18;;;;;;;26.95;19.02;;;-0.80;99.90;;;;;;5008387;28;20030;-74
2021/01/17 02:13:51;;;;;;;26.88;19.48;;;-0.90;99.90;;;;;;5003536;28;20046;-73
2021/01/17 02:16:17;;;;;;;25.45;17.70;;;-1.00;99.90;;;;;;5011321;28;20018;-72
2021/01/17 02:18:46;;;;;;;29.33;19.25;;;-1.00;99.90;;;;;;5014178;28;20026;-73
2021/01/17 02:21:12;;;;;;;28.27;18.25;;;-1.10;99.90;;;;;;5014466;28;20046;-73
2021/01/17 02:23:58;;;;;;;30.65;19.02;;;-1.10;99.90;;;;;;5017870;28;20029;-72
2021/01/17 02:26:24;;;;;;;29.20;19.40;;;-1.10;99.90;;;;;;5004137;28;20037;-72
2021/01/17 02:28:51;;;;;;;26.90;19.13;;;-1.10;99.90;;;;;;5015675;28;20022;-72
2021/01/17 02:31:19;;;;;;;29.35;19.67;;;-1.10;99.90;;;;;;5017084;28;20070;-72
2021/01/17 02:33:47;;;;;;;30.85;19.27;;;-1.10;99.90;;;;;;5009494;28;20305;-73
2021/01/17 02:36:37;;;;;;;30.15;20.95;;;-1.20;99.90;;;;;;5009308;28;20014;-72
2021/01/17 02:39:26;;;;;;;33.03;21.70;;;-1.20;99.90;;;;;;5017744;28;20011;-71
2021/01/17 02:42:00;;;;;;;25.25;17.75;;;-1.20;99.90;;;;;;5014502;28;20527;-72
2021/01/17 02:44:31;;;;;;;28.42;19.15;;;-1.20;99.90;;;;;;5016925;28;20097;-73
2021/01/17 02:46:56;;;;;;;27.55;19.08;;;-1.10;99.90;;;;;;5016865;28;20040;-74
2021/01/17 02:49:22;;;;;;;31.25;20.35;;;-1.20;99.90;;;;;;5008498;28;20049;-71
2021/01/17 02:51:49;;;;;;;31.60;20.95;;;-1.20;99.90;;;;;;5009035;28;20037;-72
2021/01/17 02:54:29;;;;;;;28.27;19.70;;;-1.20;99.90;;;;;;5017070;28;20042;-73
2021/01/17 02:57:01;;;;;;;29.83;20.83;;;-1.20;99.90;;;;;;5011791;28;20019;-72
2021/01/17 02:59:34;;;;;;;27.70;19.95;;;-1.20;99.90;;;;;;5016591;28;20042;-73
2021/01/17 03:02:03;;;;;;;29.42;20.55;;;-1.20;99.90;;;;;;5017289;28;20007;-72
2021/01/17 03:04:50;;;;;;;31.00;21.20;;;-1.20;99.90;;;;;;5016768;28;20025;-73
2021/01/17 03:07:19;;;;;;;30.30;20.23;;;-1.20;99.90;;;;;;5017656;28;20034;-72
2021/01/17 03:09:45;;;;;;;29.60;20.92;;;-1.10;99.90;;;;;;5031498;28;20022;-72
2021/01/17 03:12:11;;;;;;;30.35;19.90;;;-1.20;99.90;;;;;;5004769;28;20011;-73
2021/01/17 03:14:38;;;;;;;29.08;19.90;;;-1.20;99.90;;;;;;5015087;28;20043;-72
2021/01/17 03:17:06;;;;;;;28.45;19.35;;;-1.20;99.90;;;;;;5008757;28;20094;-72
2021/01/17 03:19:31;;;;;;;29.10;19.30;;;-1.20;99.90;;;;;;5016776;28;20101;-72
2021/01/17 03:21:57;;;;;;;32.08;21.48;;;-1.20;99.90;;;;;;5009939;28;20014;-73
2021/01/17 03:24:23;;;;;;;29.92;19.65;;;-1.20;99.90;;;;;;5014020;28;20086;-71
2021/01/17 03:26:49;;;;;;;29.67;19.42;;;-1.20;99.90;;;;;;5011326;28;20018;-72
2021/01/17 03:29:15;;;;;;;27.17;17.45;;;-1.20;99.90;;;;;;5013262;28;20023;-73
2021/01/17 03:31:40;;;;;;;28.58;19.48;;;-1.20;99.90;;;;;;5013156;28;20034;-73
2021/01/17 03:34:06;;;;;;;29.25;18.10;;;-1.10;99.90;;;;;;5017115;28;20038;-73
2021/01/17 03:36:32;;;;;;;25.48;17.20;;;-1.10;99.90;;;;;;5014722;28;20023;-72
2021/01/17 03:38:57;;;;;;;26.98;18.05;;;-1.10;99.90;;;;;;4999564;28;20053;-71
2021/01/17 03:41:26;;;;;;;25.25;16.63;;;-1.10;99.90;;;;;;5015809;28;20053;-71
2021/01/17 03:43:52;;;;;;;22.95;17.52;;;-1.10;99.90;;;;;;5011065;28;20078;-72
2021/01/17 03:46:18;;;;;;;22.92;16.00;;;-1.10;99.90;;;;;;5016903;28;20053;-72
2021/01/17 03:48:44;;;;;;;25.48;16.80;;;-1.10;99.90;;;;;;5009593;28;20036;-73
2021/01/17 03:51:09;;;;;;;24.10;16.63;;;-1.10;99.90;;;;;;5009314;28;20019;-71
2021/01/17 03:53:35;;;;;;;24.35;17.10;;;-1.10;99.90;;;;;;5016168;28;20014;-72
2021/01/17 03:56:01;;;;;;;25.40;17.70;;;-1.10;99.90;;;;;;5005341;28;20078;-72
2021/01/17 03:58:26;;;;;;;24.40;18.00;;;-1.10;99.90;;;;;;5006380;28;20086;-72
2021/01/17 04:00:52;;;;;;;26.33;17.90;;;-1.00;99.90;;;;;;5016306;28;20073;-72
2021/01/17 04:03:18;;;;;;;25.70;17.33;;;-1.00;99.90;;;;;;5008374;28;20038;-72
2021/01/17 04:05:43;;;;;;;28.85;19.58;;;-1.10;99.90;;;;;;5012541;28;20045;-73
2021/01/17 04:08:09;;;;;;;27.10;18.80;;;-1.00;99.90;;;;;;5017121;28;20265;-74
2021/01/17 04:10:35;;;;;;;25.48;17.60;;;-1.00;99.90;;;;;;5024942;28;20053;-73
2021/01/17 04:13:00;;;;;;;28.38;20.27;;;-0.90;99.90;;;;;;5015148;28;20022;-74
2021/01/17 04:15:26;;;;;;;26.58;18.45;;;-0.90;99.90;;;;;;5013630;28;20033;-74
2021/01/17 04:17:51;;;;;;;25.80;18.00;;;-0.80;99.90;;;;;;5006646;28;20060;-73
2021/01/17 04:20:17;;;;;;;28.38;19.92;;;-0.90;99.90;;;;;;5017209;28;20023;-74
2021/01/17 04:22:43;;;;;;;27.30;18.75;;;-0.80;99.90;;;;;;5013808;28;20038;-71
2021/01/17 04:25:09;;;;;;;28.30;19.13;;;-0.70;99.90;;;;;;5000994;28;20026;-73
2021/01/17 04:27:35;;;;;;;28.73;19.60;;;-0.40;99.90;;;;;;5008519;28;20095;-73
2021/01/17 04:30:00;;;;;;;28.23;19.55;;;-0.30;99.90;;;;;;5007812;28;20026;-73
2021/01/17 04:32:26;;;;;;;26.02;17.35;;;-0.20;99.90;;;;;;5000078;28;20018;-73
2021/01/17 04:34:52;;;;;;;26.38;17.92;;;-0.20;99.90;;;;;;4985402;28;20054;-73
2021/01/17 04:37:22;;;;;;;27.33;18.65;;;-0.10;99.90;;;;;;4998018;28;20026;-73
2021/01/17 04:39:48;;;;;;;31.88;20.08;;;-0.20;99.90;;;;;;5007468;28;20050;-73
2021/01/17 04:42:19;;;;;;;29.42;19.42;;;-0.20;99.90;;;;;;5014901;28;20034;-73
2021/01/17 04:44:54;;;;;;;;;;;-0.40;99.90;;;;;;4998364;28;20030;-73
2021/01/17 04:47:21;;;;;;;31.67;20.58;;;-0.60;99.90;;;;;;4999125;28;19910;-73
2021/01/17 04:49:53;;;;;;;30.42;19.88;;;-0.80;99.90;;;;;;4997037;28;20038;-72
2021/01/17 04:52:20;;;;;;;36.55;21.95;;;-0.90;99.90;;;;;;4997947;28;20030;-74
2021/01/17 04:54:47;;;;;;;33.38;19.17;;;-1.00;99.90;;;;;;4989102;28;20056;-74
2021/01/17 04:57:41;;;;;;;31.55;19.75;;;-0.90;99.90;;;;;;5000469;28;20085;-74
2021/01/17 05:00:09;;;;;;;29.15;20.02;;;-1.00;99.90;;;;;;4996658;28;20030;-73
2021/01/17 05:02:48;;;;;;;29.17;19.73;;;-1.00;99.90;;;;;;5001917;28;20031;-73
2021/01/17 05:05:25;;;;;;;29.50;19.85;;;-1.00;99.90;;;;;;5001862;28;20586;-73
2021/01/17 05:08:09;;;;;;;29.30;19.98;;;-0.70;99.90;;;;;;4996195;28;20035;-73
2021/01/17 05:10:37;;;;;;;31.35;19.15;;;-0.40;99.90;;;;;;5013574;28;20046;-73
2021/01/17 05:13:16;;;;;;;27.63;18.95;;;-0.20;99.90;;;;;;5020209;28;20049;-73
2021/01/17 05:15:43;;;;;;;33.10;19.85;;;-0.20;99.90;;;;;;5012324;28;20031;-74
2021/01/17 05:18:09;;;;;;;28.50;19.08;;;-0.20;99.90;;;;;;5011555;28;20049;-73
2021/01/17 05:20:35;;;;;;;30.20;19.52;;;-0.20;99.90;;;;;;4997797;28;20490;-74
2021/01/17 05:23:01;;;;;;;29.27;20.40;;;-0.10;99.90;;;;;;4993542;28;20032;-74
2021/01/17 05:25:28;;;;;;;32.67;21.00;;;-0.20;99.90;;;;;;5005282;28;20063;-74
2021/01/17 05:27:55;;;;;;;28.70;19.58;;;-0.20;99.90;;;;;;5011651;28;20065;-74
2021/01/17 05:30:21;;;;;;;30.58;20.60;;;-0.20;99.90;;;;;;5011103;28;20056;-74
2021/01/17 05:32:55;;;;;;;31.52;20.48;;;-0.40;99.90;;;;;;5012693;28;20039;-73
2021/01/17 05:35:23;;;;;;;27.83;19.88;;;-0.40;99.90;;;;;;5017625;28;20070;-72
2021/01/17 05:37:49;;;;;;;29.13;19.55;;;-0.30;99.90;;;;;;5018744;28;20048;-73
2021/01/17 05:40:15;;;;;;;29.30;20.30;;;-0.30;99.90;;;;;;5010580;28;20015;-72
2021/01/17 05:42:42;;;;;;;30.63;20.83;;;-0.10;99.90;;;;;;5018806;28;20014;-73
2021/01/17 05:45:23;;;;;;;30.45;20.80;;;-0.10;99.90;;;;;;5011849;28;20029;-74
2021/01/17 05:47:56;;;;;;;28.00;18.15;;;-0.10;99.90;;;;;;5000821;28;20019;-74
2021/01/17 05:50:23;;;;;;;28.30;20.77;;;-0.10;99.90;;;;;;5019082;28;20035;-73
2021/01/17 05:52:53;;;;;;;29.15;19.65;;;-0.10;99.90;;;;;;5014693;28;20023;-73
2021/01/17 05:55:27;;;;;;;32.05;21.25;;;-0.20;99.90;;;;;;5018872;28;20044;-73
2021/01/17 05:57:52;;;;;;;32.05;21.77;;;-0.30;99.90;;;;;;5008863;28;20015;-74
2021/01/17 06:00:32;;;;;;;34.63;21.88;;;-0.30;99.90;;;;;;5010459;28;20101;-73
2021/01/17 06:02:58;;;;;;;31.85;21.60;;;-0.50;99.90;;;;;;5018982;28;20034;-74
2021/01/17 06:05:25;;;;;;;30.90;20.08;;;-0.70;99.90;;;;;;5019031;28;20025;-74
2021/01/17 06:07:51;;;;;;;32.38;21.17;;;-0.80;99.90;;;;;;5011423;28;20035;-73
2021/01/17 06:10:23;;;;;;;31.92;22.77;;;-0.70;99.90;;;;;;5011071;28;20046;-73
2021/01/17 06:12:51;;;;;;;32.50;21.40;;;-0.80;99.90;;;;;;5018971;28;20022;-73
2021/01/17 06:15:16;;;;;;;33.88;21.35;;;-0.90;99.90;;;;;;5009497;28;20039;-74
2021/01/17 06:17:46;;;;;;;36.25;21.15;;;-0.90;99.90;;;;;;4999546;28;20046;-73
2021/01/17 06:20:27;;;;;;;31.75;23.15;;;-0.90;99.90;;;;;;5004875;28;20014;-73
2021/01/17 06:23:00;;;;;;;35.70;21.80;;;-0.90;99.90;;;;;;5004821;28;20090;-74
2021/01/17 06:25:30;;;;;;;34.13;22.23;;;-1.00;99.90;;;;;;5016493;28;20026;-73
2021/01/17 06:28:15;;;;;;;37.47;22.92;;;-0.90;99.90;;;;;;5017970;28;20095;-75
2021/01/17 06:30:41;;;;;;;35.15;23.52;;;-1.00;99.90;;;;;;5014634;28;20042;-74
2021/01/17 06:33:07;;;;;;;33.60;22.13;;;-0.80;99.90;;;;;;5018938;28;20034;-73
2021/01/17 06:35:37;;;;;;;34.60;23.00;;;-0.50;99.90;;;;;;5018907;28;20042;-73
2021/01/17 06:38:20;;;;;;;35.58;21.65;;;-0.30;99.90;;;;;;5018479;28;20022;-74
2021/01/17 06:40:47;;;;;;;35.80;22.92;;;-0.10;99.90;;;;;;5014736;28;20094;-73
2021/01/17 06:43:14;;;;;;;32.53;21.50;;;-0.10;99.90;;;;;;5016522;28;20027;-75
2021/01/17 06:45:44;;;;;;;35.45;21.35;;;-0.10;99.90;;;;;;5009341;28;20020;-75
2021/01/17 06:48:24;;;;;;;36.63;24.15;;;-0.40;99.90;;;;;;5004541;28;20037;-72
2021/01/17 06:50:50;;;;;;;37.53;24.08;;;-0.40;99.90;;;;;;4996269;28;20086;-73
2021/01/17 06:53:23;;;;;;;35.75;22.25;;;-0.60;99.90;;;;;;5002427;28;20076;-72
2021/01/17 06:55:49;;;;;;;34.40;22.17;;;-0.70;99.90;;;;;;4998537;28;20018;-73
2021/01/17 06:58:18;;;;;;;32.85;21.02;;;-0.70;99.90;;;;;;4990314;28;20427;-72
2021/01/17 07:00:45;;;;;;;35.67;23.15;;;-0.70;99.90;;;;;;4992439;28;20101;-74
2021/01/17 07:03:17;;;;;;;36.53;23.58;;;-0.70;99.90;;;;;;5000704;28;20035;-73
2021/01/17 07:05:46;;;;;;;36.88;23.90;;;-0.70;99.90;;;;;;4986995;28;20026;-74
2021/01/17 07:08:41;;;;;;;36.65;24.70;;;-0.70;99.90;;;;;;5001948;28;20034;-73
2021/01/17 07:11:25;;;;;;;38.47;23.58;;;-0.70;99.90;;;;;;4988960;28;20113;-74
2021/01/17 07:14:03;;;;;;;36.25;23.17;;;-0.80;99.90;;;;;;4990588;28;20438;-76
2021/01/17 07:16:31;;;;;;;36.70;24.35;;;-0.80;99.90;;;;;;4998487;28;20042;-74
2021/01/17 07:19:03;;;;;;;31.92;21.50;;;-0.70;99.90;;;;;;4989920;28;20041;-73
2021/01/17 07:21:35;;;;;;;36.70;24.52;;;-0.70;99.90;;;;;;4992481;28;20022;-73
2021/01/17 07:24:04;;;;;;;33.53;21.35;;;-0.70;99.90;;;;;;4992507;28;20034;-73
2021/01/17 07:27:01;;;;;;;37.17;23.67;;;-0.70;99.90;;;;;;5002224;28;20038;-73
2021/01/17 07:29:28;;;;;;;36.03;22.70;;;-0.70;99.90;;;;;;4995726;28;20031;-74
2021/01/17 07:31:56;;;;;;;36.28;22.38;;;-0.70;99.90;;;;;;4988409;28;20117;-74
2021/01/17 07:34:22;;;;;;;36.28;24.38;;;-0.70;99.90;;;;;;4991998;28;21589;-73
2021/01/17 07:36:49;;;;;;;37.75;23.70;;;-0.60;99.90;;;;;;4988283;28;20045;-74
2021/01/17 07:39:24;;;;;;;36.58;22.73;;;-0.60;99.90;;;;;;4994973;28;20390;-75
2021/01/17 07:41:50;;;;;;;37.28;23.73;;;-0.50;99.90;;;;;;4992544;28;20101;-73
2021/01/17 07:44:19;;;;;;;37.53;23.98;;;-0.60;99.90;;;;;;4986114;28;20030;-73
2021/01/17 07:46:45;;;;;;;37.65;23.33;;;-0.60;99.90;;;;;;4987554;28;20085;-73
2021/01/17 07:49:13;;;;;;;35.95;23.30;;;-0.50;99.90;;;;;;4988118;28;20040;-73
2021/01/17 07:51:39;;;;;;;33.80;23.40;;;-0.50;99.90;;;;;;4989547;28;20573;-73
2021/01/17 07:54:26;;;;;;;37.42;24.80;;;-0.50;99.90;;;;;;4982080;28;20058;-74
2021/01/17 07:56:52;;;;;;;37.83;24.52;;;-0.40;99.90;;;;;;4984231;28;20027;-73
2021/01/17 07:59:25;;;;;;;34.42;24.55;;;-0.30;99.90;;;;;;4993658;28;20026;-74
2021/01/17 08:01:52;;;;;;;36.03;23.13;;;-0.30;99.90;;;;;;4996748;28;20033;-73
2021/01/17 08:04:18;;;;;;;38.70;23.90;;;-0.20;99.90;;;;;;4999379;28;20022;-75
2021/01/17 08:06:45;;;;;;;36.17;22.23;;;-0.20;99.90;;;;;;4999724;28;20033;-74
2021/01/17 08:09:11;;;;;;;38.80;24.02;;;0.10;99.90;;;;;;4999844;28;20041;-73
2021/01/17 08:11:51;;;;;;;30.60;20.83;;;0.30;99.90;;;;;;4988207;28;20054;-73
2021/01/17 08:14:21;;;;;;;35.30;23.10;;;0.50;99.90;;;;;;5010453;28;20026;-73
2021/01/17 08:17:21;;;;;;;31.23;20.08;;;0.70;99.90;;;;;;5015047;28;20081;-73
2021/01/17 08:20:00;;;;;;;30.60;20.67;;;0.50;99.90;;;;;;5001551;28;20014;-74
2021/01/17 08:22:25;;;;;;;31.65;21.30;;;0.60;99.90;;;;;;5006284;28;20474;-74
2021/01/17 08:24:56;;;;;;;35.05;22.67;;;0.70;99.90;;;;;;5014309;28;20041;-73
2021/01/17 08:27:27;;;;;;;33.60;22.25;;;0.70;99.90;;;;;;4992212;28;20028;-74
2021/01/17 08:30:02;;;;;;;30.55;22.58;;;0.60;99.90;;;;;;5000684;28;20090;-74
2021/01/17 08:32:51;;;;;;;31.45;22.45;;;0.50;99.90;;;;;;4997355;28;20027;-75
2021/01/17 08:35:19;;;;;;;35.10;22.48;;;0.40;99.90;;;;;;4999155;28;20055;-73
2021/01/17 08:37:49;;;;;;;35.28;23.17;;;0.30;99.90;;;;;;5005510;28;20030;-73
2021/01/17 08:40:16;;;;;;;36.95;23.63;;;0.10;99.90;;;;;;5000357;28;20031;-73
2021/01/17 08:42:53;;;;;;;35.30;23.88;;;0.10;99.90;;;;;;4996953;28;20030;-74
2021/01/17 08:45:21;;;;;;;40.65;23.13;;;0.20;99.90;;;;;;4995386;28;20050;-73
2021/01/17 08:47:52;;;;;;;36.42;22.60;;;0.20;99.90;;;;;;4991266;28;20037;-74
2021/01/17 08:50:34;;;;;;;33.45;23.48;;;0.30;99.90;;;;;;4995558;28;20033;-73
2021/01/17 08:53:15;;;;;;;35.90;23.60;;;0.30;99.90;;;;;;4993694;28;20125;-74
2021/01/17 08:55:42;;;;;;;34.53;22.43;;;0.40;99.90;;;;;;5002600;28;20019;-74
2021/01/17 08:58:10;;;;;;;34.75;22.98;;;0.60;99.90;;;;;;4997901;28;20061;-74
2021/01/17 09:00:56;;;;;;;37.35;25.70;;;0.50;99.90;;;;;;4999545;28;20105;-74
2021/01/17 09:03:32;;;;;;;34.30;22.58;;;0.40;99.90;;;;;;4990224;28;20057;-74
2021/01/17 09:06:23;;;;;;;33.67;22.77;;;0.40;99.90;;;;;;4989533;28;20026;-74
2021/01/17 09:08:49;;;;;;;37.85;23.25;;;0.50;99.90;;;;;;4986846;28;20469;-75
2021/01/17 09:11:37;;;;;;;36.13;23.52;;;0.40;99.90;;;;;;4989897;28;20022;-73
2021/01/17 09:14:23;;;;;;;32.33;22.08;;;0.50;99.90;;;;;;4994122;28;20026;-73
2021/01/17 09:16:57;;;;;;;32.25;22.17;;;0.50;99.90;;;;;;4994272;28;20098;-74
2021/01/17 09:19:28;;;;;;;35.00;23.15;;;0.60;99.90;;;;;;4996514;28;20027;-75
2021/01/17 09:21:55;;;;;;;34.35;23.08;;;0.60;99.90;;;;;;5003185;28;20022;-73
2021/01/17 09:24:23;;;;;;;34.75;21.42;;;0.60;99.90;;;;;;4990470;28;20035;-74
2021/01/17 09:26:59;;;;;;;34.60;23.52;;;0.70;99.90;;;;;;4992727;28;20039;-74
2021/01/17 09:29:33;;;;;;;34.83;22.35;;;0.80;99.90;;;;;;4998831;28;20026;-74
2021/01/17 09:32:03;;;;;;;31.83;22.27;;;0.80;99.90;;;;;;4995734;28;20023;-74
2021/01/17 09:34:31;;;;;;;36.38;22.70;;;1.20;99.90;;;;;;4997539;28;20060;-74
2021/01/17 09:37:00;;;;;;;35.50;24.05;;;1.60;99.90;;;;;;4998224;28;20082;-74
2021/01/17 09:39:34;;;;;;;33.10;23.42;;;1.70;99.90;;;;;;4987681;28;20019;-73
2021/01/17 09:42:01;;;;;;;31.90;21.67;;;1.70;99.90;;;;;;4990218;28;20023;-75
2021/01/17 09:44:27;;;;;;;30.25;21.90;;;1.70;99.90;;;;;;4996414;28;20031;-73
2021/01/17 09:46:54;;;;;;;36.55;23.00;;;1.60;99.90;;;;;;4995479;28;20030;-73
2021/01/17 09:49:25;;;;;;;33.30;22.88;;;1.90;99.90;;;;;;4996202;28;20038;-73
2021/01/17 09:51:51;;;;;;;31.95;22.20;;;2.10;99.90;;;;;;4992567;28;20038;-73
2021/01/17 09:54:17;;;;;;;38.20;23.77;;;2.30;99.90;;;;;;4984876;28;20030;-75
2021/01/17 09:56:43;;;;;;;30.30;21.95;;;2.30;99.90;;;;;;4988564;28;20062;-75
2021/01/17 09:59:22;;;;;;;32.22;21.73;;;2.20;99.90;;;;;;4999095;28;20068;-75
2021/01/17 10:01:49;;;;;;;35.08;23.23;;;2.20;99.90;;;;;;4999287;28;20114;-73
2021/01/17 10:04:26;;;;;;;35.65;23.77;;;2.10;99.90;;;;;;4987036;28;20033;-74
2021/01/17 10:06:53;;;;;;;33.20;23.35;;;1.90;99.90;;;;;;4999848;28;20094;-74
2021/01/17 10:09:19;;;;;;;29.83;22.35;;;2.00;99.90;;;;;;5006995;28;20516;-73
2021/01/17 10:11:45;;;;;;;34.88;23.73;;;2.00;99.90;;;;;;5006717;28;20015;-73
2021/01/17 10:14:12;;;;;;;37.58;24.63;;;2.20;99.90;;;;;;4995563;28;20041;-73
2021/01/17 10:16:38;;;;;;;33.03;24.20;;;2.10;99.90;;;;;;5003048;28;20027;-73
2021/01/17 10:19:07;;;;;;;32.85;23.77;;;2.00;99.90;;;;;;4991695;28;20034;-73
2021/01/17 10:21:41;;;;;;;31.73;23.42;;;1.90;99.90;;;;;;4999089;28;20018;-74
2021/01/17 10:24:07;;;;;;;33.47;21.60;;;1.90;99.90;;;;;;4998629;28;20052;-72
2021/01/17 10:26:34;;;;;;;33.92;22.08;;;1.90;99.90;;;;;;4993130;28;20030;-72
2021/01/17 10:29:06;;;;;;;29.95;21.42;;;1.70;99.90;;;;;;4992233;28;20054;-73
2021/01/17 10:31:35;;;;;;;34.03;23.48;;;2.00;99.90;;;;;;4989888;28;20438;-71
2021/01/17 10:34:01;;;;;;;36.05;23.75;;;2.30;99.90;;;;;;4988795;28;20023;-73
2021/01/17 10:36:27;;;;;;;33.05;22.73;;;2.50;99.90;;;;;;4996897;28;20098;-74
2021/01/17 10:38:53;;;;;;;42.88;26.15;;;2.30;99.90;;;;;;4998334;28;20042;-75
2021/01/17 10:41:30;;;;;;;33.10;22.08;;;2.10;99.90;;;;;;4996795;28;20054;-75
2021/01/17 10:44:07;;;;;;;36.53;23.63;;;2.20;99.90;;;;;;4996930;28;20064;-74
2021/01/17 10:46:36;;;;;;;36.28;24.08;;;2.10;99.90;;;;;;4993580;28;20129;-72
2021/01/17 10:49:08;;;;;;;35.80;25.02;;;1.80;99.90;;;;;;5007985;28;20032;-73
2021/01/17 10:51:54;;;;;;;32.58;23.55;;;1.60;99.90;;;;;;4996216;28;20030;-73
2021/01/17 10:54:31;;;;;;;32.72;22.33;;;2.00;99.90;;;;;;4994991;28;20030;-72
2021/01/17 10:57:04;;;;;;;39.25;24.77;;;2.40;99.90;;;;;;4998636;28;20030;-74
2021/01/17 10:59:31;;;;;;;36.15;23.45;;;2.30;99.90;;;;;;4998945;28;20018;-73
2021/01/17 11:01:56;;;;;;;36.42;24.17;;;2.60;99.90;;;;;;4995490;28;20121;-74
2021/01/17 11:04:22;;;;;;;37.53;24.48;;;2.70;99.90;;;;;;4995067;28;20042;-73
2021/01/17 11:06:48;;;;;;;39.83;25.95;;;2.80;99.90;;;;;;4995914;28;20030;-72
2021/01/17 11:09:16;;;;;;;34.90;24.25;;;2.70;99.90;;;;;;4990841;28;20113;-75
2021/01/17 11:11:47;;;;;;;41.42;25.80;;;2.60;99.90;;;;;;4993668;28;20494;-73
2021/01/17 11:14:14;;;;;;;40.00;25.50;;;2.50;99.90;;;;;;4993214;28;20034;-72
2021/01/17 11:16:44;;;;;;;36.05;25.35;;;2.50;99.90;;;;;;4993992;28;20068;-74
2021/01/17 11:19:14;;;;;;;44.63;27.98;;;2.50;99.90;;;;;;4994779;28;20018;-71
2021/01/17 11:21:45;;;;;;;42.90;26.58;;;2.50;99.90;;;;;;4992387;28;20434;-72
2021/01/17 11:24:12;;;;;;;38.90;25.50;;;2.50;99.90;;;;;;4998833;28;20561;-72
2021/01/17 11:26:38;;;;;;;42.70;27.02;;;2.60;99.90;;;;;;4991724;28;20221;-73
2021/01/17 11:29:06;;;;;;;41.10;26.67;;;2.40;99.90;;;;;;4985560;28;20104;-73
2021/01/17 11:31:33;;;;;;;38.33;25.45;;;2.10;99.90;;;;;;4989786;28;20069;-73
2021/01/17 11:33:59;;;;;;;41.75;26.58;;;2.10;99.90;;;;;;4993323;28;20030;-74
2021/01/17 11:36:27;;;;;;;36.72;23.77;;;2.50;99.90;;;;;;5002714;28;20101;-73
2021/01/17 11:38:57;;;;;;;41.10;26.90;;;2.50;99.90;;;;;;5001664;28;20018;-74
2021/01/17 11:41:31;;;;;;;37.50;24.52;;;2.40;99.90;;;;;;4999001;28;20046;-73
2021/01/17 11:44:10;;;;;;;36.42;24.20;;;2.50;99.90;;;;;;4995436;28;20409;-75
2021/01/17 11:46:36;;;;;;;42.53;25.45;;;2.40;99.90;;;;;;4981697;28;20042;-74
2021/01/17 11:49:03;;;;;;;39.90;25.70;;;2.50;99.90;;;;;;4988941;28;20039;-72
2021/01/17 11:51:28;;;;;;;44.70;26.35;;;2.40;99.90;;;;;;5006828;28;20057;-72
2021/01/17 11:53:54;;;;;;;38.65;23.02;;;2.30;99.90;;;;;;4991760;28;20026;-72
2021/01/17 11:56:20;;;;;;;35.47;23.98;;;2.10;99.90;;;;;;4992277;28;20042;-72
2021/01/17 11:58:45;;;;;;;35.55;23.85;;;2.10;99.90;;;;;;5002813;28;20026;-72
2021/01/17 12:01:13;;;;;;;35.92;24.63;;;2.00;99.90;;;;;;5013853;28;20041;-76
2021/01/17 12:03:40;;;;;;;42.30;25.25;;;1.80;99.90;;;;;;5015230;28;20060;-73
2021/01/17 12:06:19;;;;;;;38.20;25.52;;;1.70;99.90;;;;;;5009717;28;20023;-73
2021/01/17 12:09:05;;;;;;;40.53;24.73;;;1.70;99.90;;;;;;5012178;28;20152;-73
2021/01/17 12:11:43;;;;;;;36.80;24.75;;;1.60;99.90;;;;;;5016210;28;20090;-75
2021/01/17 12:14:11;;;;;;;34.28;22.63;;;1.70;99.90;;;;;;5014379;28;20106;-71
2021/01/17 12:16:44;;;;;;;31.58;21.40;;;1.90;99.90;;;;;;4997568;28;20038;-70
2021/01/17 12:19:18;;;;;;;28.92;20.83;;;1.80;99.90;;;;;;4989614;28;20037;-78
2021/01/17 12:21:45;;;;;;;31.85;21.83;;;1.70;99.90;;;;;;5000141;28;20018;-79
2021/01/17 12:24:13;;;;;;;33.15;22.08;;;1.70;99.90;;;;;;5014687;28;20441;-78
2021/01/17 12:26:40;;;;;;;32.42;21.75;;;1.70;99.90;;;;;;5007837;28;20089;-80
2021/01/17 12:29:06;;;;;;;28.50;19.92;;;2.10;99.90;;;;;;4999047;28;20027;-78
2021/01/17 12:31:32;;;;;;;32.13;20.85;;;2.40;99.90;;;;;;5008582;28;20030;-79
2021/01/17 12:33:59;;;;;;;28.65;19.58;;;2.50;99.90;;;;;;5000081;28;20027;-78
2021/01/17 12:36:28;;;;;;;26.40;18.20;;;2.20;99.90;;;;;;5030780;28;20026;-79
2021/01/17 12:38:54;;;;;;;28.92;20.73;;;2.30;99.90;;;;;;4999300;28;20078;-80
2021/01/17 12:41:24;;;;;;;30.90;20.77;;;2.30;99.90;;;;;;4986534;28;20026;-78
2021/01/17 12:43:50;;;;;;;32.07;21.03;;;2.40;99.90;;;;;;5003830;28;20077;-79